createdAt,value
2019-01-19T00:00:25.413Z,35.67
2019-01-19T00:03:17.915Z,28.00
2019-01-19T00:06:25.221Z,28.87
2019-01-19T00:09:32.480Z,30.30
2019-01-19T00:12:28.257Z,29.83
2019-01-19T00:15:18.744Z,28.87
2019-01-19T00:18:25.996Z,28.60
2019-01-19T00:21:33.529Z,27.67
2019-01-19T00:24:25.179Z,26.60
2019-01-19T00:27:32.439Z,31.40
2019-01-19T00:30:32.610Z,32.43
2019-01-19T00:33:40.417Z,25.00
2019-01-19T00:36:47.926Z,26.60
2019-01-19T00:39:55.200Z,31.73
2019-01-19T00:42:45.961Z,29.37
2019-01-19T00:45:53.213Z,33.07
2019-01-19T00:49:00.522Z,28.23
2019-01-19T00:52:08.260Z,28.37
2019-01-19T00:55:15.800Z,29.37
2019-01-19T00:58:23.044Z,30.30
2019-01-19T01:01:23.533Z,25.87
2019-01-19T01:04:30.803Z,28.43
2019-01-19T01:07:38.112Z,26.67
2019-01-19T01:10:45.648Z,27.50
2019-01-19T01:13:39.420Z,32.63
2019-01-19T01:16:19.495Z,28.37
2019-01-19T01:19:11.527Z,30.13
2019-01-19T01:22:19.135Z,29.37
2019-01-19T01:25:26.714Z,26.73
2019-01-19T01:28:34.048Z,27.70
2019-01-19T01:31:41.588Z,24.90
2019-01-19T01:34:49.089Z,30.97
2019-01-19T01:37:56.664Z,32.23
2019-01-19T01:41:04.201Z,32.47
2019-01-19T01:44:11.513Z,30.97
2019-01-19T01:47:18.807Z,31.20
2019-01-19T01:50:19.572Z,30.57
2019-01-19T01:53:26.896Z,28.57
2019-01-19T01:56:00.174Z,27.57
2019-01-19T01:59:07.728Z,28.60
2019-01-19T02:02:15.077Z,31.37
2019-01-19T02:05:22.335Z,29.30
2019-01-19T02:08:29.896Z,31.07
2019-01-19T02:11:22.215Z,31.70
2019-01-19T02:14:14.084Z,27.13
2019-01-19T02:17:21.360Z,29.57
2019-01-19T02:20:14.381Z,29.90
2019-01-19T02:23:21.679Z,27.50
2019-01-19T02:26:28.957Z,28.33
2019-01-19T02:29:36.228Z,27.10
2019-01-19T02:32:30.179Z,28.70
2019-01-19T02:35:37.476Z,30.57
2019-01-19T02:38:44.714Z,28.23
2019-01-19T02:41:47.092Z,29.17
2019-01-19T02:44:39.659Z,30.37
2019-01-19T02:50:23.159Z,27.20
2019-01-19T02:53:18.564Z,26.87
2019-01-19T02:56:25.884Z,31.00
2019-01-19T02:59:17.081Z,29.67
2019-01-19T03:02:24.897Z,34.87
2019-01-19T03:05:15.515Z,27.37
2019-01-19T03:08:22.804Z,31.43
2019-01-19T03:11:30.052Z,27.73
2019-01-19T03:14:37.350Z,33.13
2019-01-19T03:17:44.656Z,35.30
2019-01-19T03:20:52.170Z,31.30
2019-01-19T03:23:47.685Z,38.77
2019-01-19T03:26:39.251Z,34.30
2019-01-19T03:29:46.547Z,35.60
2019-01-19T03:32:39.004Z,32.97
2019-01-19T03:35:34.032Z,34.53
2019-01-19T03:38:30.261Z,31.97
2019-01-19T03:41:38.446Z,34.93
2019-01-19T03:44:38.901Z,30.00
2019-01-19T03:47:46.417Z,36.60
2019-01-19T03:50:44.277Z,30.20
2019-01-19T03:53:52.084Z,34.67
2019-01-19T03:56:52.738Z,30.70
2019-01-19T03:59:48.489Z,29.93
2019-01-19T04:02:56.289Z,32.23
2019-01-19T04:06:03.839Z,33.17
2019-01-19T04:09:11.154Z,34.37
2019-01-19T04:12:13.129Z,31.47
2019-01-19T04:15:07.300Z,33.90
2019-01-19T04:18:01.862Z,32.43
2019-01-19T04:21:03.913Z,32.80
2019-01-19T04:23:33.488Z,37.73
2019-01-19T04:26:06.963Z,34.73
2019-01-19T04:28:36.211Z,32.33
2019-01-19T04:31:05.410Z,35.40
2019-01-19T04:33:34.603Z,30.23
2019-01-19T04:36:04.184Z,36.50
2019-01-19T04:41:23.494Z,32.33
2019-01-19T04:43:52.683Z,38.37
2019-01-19T04:46:21.887Z,32.23
2019-01-19T04:48:51.534Z,32.57
2019-01-19T04:51:20.786Z,32.80
2019-01-19T04:53:50.593Z,28.33
2019-01-19T04:56:20.301Z,31.40
2019-01-19T04:58:49.782Z,34.27
2019-01-19T05:01:19.333Z,35.70
2019-01-19T05:03:48.825Z,33.63
2019-01-19T05:06:18.266Z,30.70
2019-01-19T05:08:47.516Z,32.10
2019-01-19T05:11:16.971Z,32.87
2019-01-19T05:13:46.444Z,32.73
2019-01-19T05:16:15.623Z,33.47
2019-01-19T05:18:45.121Z,29.43
2019-01-19T05:24:04.487Z,27.20
2019-01-19T05:26:33.677Z,26.83
2019-01-19T05:29:03.190Z,27.10
2019-01-19T05:31:32.934Z,27.27
2019-01-19T05:34:02.682Z,30.07
2019-01-19T05:36:38.214Z,32.30
2019-01-19T05:41:39.211Z,32.47
2019-01-19T05:44:08.724Z,24.60
2019-01-19T05:46:38.231Z,27.87
2019-01-19T05:49:07.445Z,28.03
2019-01-19T05:51:36.628Z,27.20
2019-01-19T05:54:05.847Z,27.23
2019-01-19T05:56:35.305Z,28.57
2019-01-19T06:01:59.588Z,27.10
2019-01-19T06:04:29.317Z,29.47
2019-01-19T06:06:59.061Z,27.00
2019-01-19T06:09:28.810Z,27.13
2019-01-19T06:11:58.576Z,27.47
2019-01-19T06:14:28.041Z,31.53
2019-01-19T06:16:57.202Z,28.80
2019-01-19T06:22:03.689Z,24.63
2019-01-19T06:24:32.906Z,30.40
2019-01-19T06:27:02.345Z,32.20
2019-01-19T06:29:31.845Z,29.20
2019-01-19T06:32:01.277Z,29.60
2019-01-19T06:34:30.509Z,30.40
2019-01-19T06:36:59.757Z,27.37
2019-01-19T06:39:29.486Z,29.73
2019-01-19T06:41:58.925Z,33.67
2019-01-19T06:44:28.395Z,28.30
2019-01-19T06:46:57.587Z,28.60
2019-01-19T06:49:26.784Z,31.17
2019-01-19T06:51:56.543Z,29.30
2019-01-19T06:54:27.060Z,32.70
2019-01-19T06:56:56.274Z,26.73
2019-01-19T06:59:25.810Z,31.73
2019-01-19T07:01:54.982Z,29.17
2019-01-19T07:04:24.552Z,29.90
2019-01-19T07:06:53.754Z,31.83
2019-01-19T07:09:22.987Z,28.97
2019-01-19T07:11:53.021Z,32.03
2019-01-19T07:14:22.449Z,30.07
2019-01-19T07:16:52.298Z,30.90
2019-01-19T07:19:21.483Z,32.40
2019-01-19T07:21:50.961Z,30.47
2019-01-19T07:24:20.494Z,33.70
2019-01-19T07:26:49.963Z,23.37
2019-01-19T07:29:20.122Z,25.53
2019-01-19T07:31:50.341Z,24.40
2019-01-19T07:34:19.788Z,23.37
2019-01-19T07:36:48.991Z,21.97
2019-01-19T07:39:18.750Z,19.00
2019-01-19T07:41:47.942Z,20.13
2019-01-19T07:44:17.170Z,20.60
2019-01-19T07:49:23.727Z,15.93
2019-01-19T07:51:53.261Z,16.93
2019-01-19T07:54:23.042Z,17.73
2019-01-19T07:56:52.538Z,18.70
2019-01-19T07:59:22.081Z,19.90
2019-01-19T08:01:51.536Z,19.90
2019-01-19T08:04:21.116Z,16.93
2019-01-19T08:06:50.328Z,15.77
2019-01-19T08:09:19.815Z,15.77
2019-01-19T08:11:49.437Z,14.80
2019-01-19T08:14:19.049Z,18.47
2019-01-19T08:16:48.591Z,16.60
2019-01-19T08:19:18.208Z,17.03
2019-01-19T08:21:47.749Z,15.30
2019-01-19T08:24:17.756Z,13.37
2019-01-19T08:26:47.029Z,16.20
2019-01-19T08:29:18.338Z,14.07
2019-01-19T08:31:48.162Z,15.57
2019-01-19T08:34:17.616Z,12.27
2019-01-19T08:36:47.098Z,12.63
2019-01-19T08:39:16.804Z,12.37
2019-01-19T08:41:45.977Z,12.73
2019-01-19T08:44:16.067Z,11.00
2019-01-19T08:46:45.524Z,11.03
2019-01-19T08:49:15.015Z,13.13
2019-01-19T08:52:03.294Z,10.00
2019-01-19T08:54:32.477Z,13.50
2019-01-19T08:57:02.206Z,11.33
2019-01-19T08:59:31.712Z,11.60
2019-01-19T09:02:01.203Z,11.17
2019-01-19T09:04:30.387Z,11.57
2019-01-19T09:06:59.898Z,10.67
2019-01-19T09:09:29.757Z,12.57
2019-01-19T09:11:59.513Z,17.37
2019-01-19T09:14:29.015Z,12.80
2019-01-19T09:16:58.292Z,10.57
2019-01-19T09:19:27.782Z,10.20
2019-01-19T09:21:57.678Z,11.93
2019-01-19T09:24:28.997Z,9.93
2019-01-19T09:26:58.507Z,13.40
2019-01-19T09:30:07.361Z,11.67
2019-01-19T09:32:37.468Z,10.73
2019-01-19T09:35:07.367Z,10.40
2019-01-19T09:37:40.833Z,7.97
2019-01-19T09:40:08.438Z,8.47
2019-01-19T09:42:37.880Z,12.70
2019-01-19T09:45:08.279Z,10.60
2019-01-19T09:47:38.306Z,11.50
2019-01-19T09:50:08.864Z,9.97
2019-01-19T09:52:38.349Z,9.00
2019-01-19T09:55:08.294Z,10.70
2019-01-19T09:57:38.039Z,9.20
2019-01-19T10:00:12.710Z,9.83
2019-01-19T10:02:44.390Z,11.33
2019-01-19T10:05:34.465Z,8.93
2019-01-19T10:08:08.590Z,9.10
2019-01-19T10:10:41.451Z,12.80
2019-01-19T10:13:13.028Z,9.03
2019-01-19T10:15:45.467Z,9.50
2019-01-19T10:18:17.830Z,10.63
2019-01-19T10:20:51.641Z,9.77
2019-01-19T10:23:24.037Z,9.73
2019-01-19T10:25:56.291Z,8.87
2019-01-19T10:28:29.357Z,9.70
2019-01-19T10:31:00.951Z,10.70
2019-01-19T10:33:30.218Z,6.50
2019-01-19T10:35:59.413Z,8.80
2019-01-19T10:38:28.587Z,7.73
2019-01-19T10:40:57.811Z,9.03
2019-01-19T10:43:26.982Z,8.77
2019-01-19T10:45:56.368Z,7.47
2019-01-19T10:48:25.543Z,8.77
2019-01-19T10:50:54.772Z,9.20
2019-01-19T10:53:23.942Z,7.37
2019-01-19T10:55:53.340Z,7.40
2019-01-19T10:58:22.566Z,8.13
2019-01-19T11:00:51.740Z,7.63
2019-01-19T11:03:21.238Z,9.77
2019-01-19T11:05:50.704Z,10.10
2019-01-19T11:08:19.919Z,8.77
2019-01-19T11:10:49.108Z,9.63
2019-01-19T11:13:18.321Z,8.83
2019-01-19T11:15:47.506Z,9.03
2019-01-19T11:18:17.124Z,9.77
2019-01-19T11:20:46.313Z,7.93
2019-01-19T11:23:15.778Z,7.37
2019-01-19T11:25:44.969Z,7.07
2019-01-19T11:28:14.119Z,8.27
2019-01-19T11:30:43.301Z,7.47
2019-01-19T11:33:12.462Z,8.77
2019-01-19T11:35:41.622Z,7.67
2019-01-19T11:38:12.108Z,8.43
2019-01-19T11:40:41.709Z,7.70
2019-01-19T11:43:50.804Z,8.00
2019-01-19T11:46:19.965Z,6.60
2019-01-19T11:48:49.137Z,8.37
2019-01-19T11:51:18.316Z,7.60
2019-01-19T11:53:48.010Z,8.57
2019-01-19T11:56:17.188Z,7.03
2019-01-19T11:58:46.408Z,6.60
2019-01-19T12:01:15.586Z,7.33
2019-01-19T12:03:44.802Z,8.37
2019-01-19T12:06:14.003Z,5.97
2019-01-19T12:08:43.255Z,8.57
2019-01-19T12:11:12.678Z,7.30
2019-01-19T12:13:42.186Z,6.83
2019-01-19T12:16:11.348Z,7.97
2019-01-19T12:18:41.025Z,7.17
2019-01-19T12:21:10.205Z,8.73
2019-01-19T12:23:39.377Z,6.37
2019-01-19T12:26:08.821Z,7.37
2019-01-19T12:28:38.280Z,9.90
2019-01-19T12:31:07.453Z,9.07
2019-01-19T12:33:36.683Z,8.70
2019-01-19T12:36:05.879Z,8.13
2019-01-19T12:38:35.358Z,7.63
2019-01-19T12:41:04.674Z,9.83
2019-01-19T12:43:34.180Z,8.60
2019-01-19T12:46:08.067Z,7.93
2019-01-19T12:48:37.236Z,6.07
2019-01-19T12:51:09.087Z,7.97
2019-01-19T12:53:38.294Z,7.97
2019-01-19T12:56:07.439Z,6.70
2019-01-19T12:58:36.876Z,7.83
2019-01-19T13:01:06.444Z,6.23
2019-01-19T13:03:35.661Z,8.13
2019-01-19T13:06:42.893Z,8.47
2019-01-19T13:09:18.928Z,6.13
2019-01-19T13:12:20.108Z,7.80
2019-01-19T13:15:11.462Z,5.57
2019-01-19T13:17:55.455Z,6.23
2019-01-19T13:20:50.992Z,6.90
2019-01-19T13:23:58.249Z,9.43
2019-01-19T13:26:56.119Z,5.90
2019-01-19T13:30:00.563Z,5.13
2019-01-19T13:33:07.955Z,9.00
2019-01-19T13:36:15.350Z,4.70
2019-01-19T13:39:08.404Z,4.80
2019-01-19T13:42:09.628Z,6.40
2019-01-19T13:45:16.965Z,4.93
2019-01-19T13:48:24.213Z,4.97
2019-01-19T13:51:17.002Z,4.90
2019-01-19T13:54:24.730Z,5.97
2019-01-19T13:57:32.025Z,5.60
2019-01-19T14:00:39.285Z,5.17
2019-01-19T14:03:38.401Z,4.33
2019-01-19T14:06:45.654Z,4.90
2019-01-19T14:09:53.232Z,6.27
2019-01-19T14:13:00.770Z,7.70
2019-01-19T14:16:00.895Z,7.77
2019-01-19T14:19:10.516Z,5.33
2019-01-19T14:22:17.778Z,6.47
2019-01-19T14:25:21.119Z,4.57
2019-01-19T14:28:28.415Z,5.47
2019-01-19T14:31:35.698Z,8.53
2019-01-19T14:34:27.913Z,6.90
2019-01-19T14:37:35.213Z,5.43
2019-01-19T14:40:42.459Z,4.87
2019-01-19T14:43:35.957Z,7.43
2019-01-19T14:46:43.513Z,5.27
2019-01-19T14:49:50.793Z,5.97
2019-01-19T14:52:58.350Z,6.90
2019-01-19T14:56:02.158Z,5.60
2019-01-19T15:02:16.100Z,5.20
2019-01-19T15:05:23.349Z,4.57
2019-01-19T15:08:30.946Z,5.83
2019-01-19T15:11:38.224Z,5.50
2019-01-19T15:14:45.570Z,5.27
2019-01-19T15:17:53.096Z,5.17
2019-01-19T15:21:00.624Z,4.43
2019-01-19T15:24:08.177Z,6.80
2019-01-19T15:27:15.417Z,8.97
2019-01-19T15:30:08.401Z,5.97
2019-01-19T15:33:15.656Z,6.13
2019-01-19T15:36:22.965Z,6.63
2019-01-19T15:39:30.226Z,5.53
2019-01-19T15:42:37.474Z,5.77
2019-01-19T15:45:44.749Z,7.60
2019-01-19T15:48:35.593Z,6.57
2019-01-19T15:51:42.876Z,4.87
2019-01-19T15:54:50.401Z,5.63
2019-01-19T15:57:57.674Z,5.77
2019-01-19T16:01:05.165Z,6.13
2019-01-19T16:04:12.683Z,6.30
2019-01-19T16:07:04.523Z,6.17
2019-01-19T16:10:11.826Z,6.77
2019-01-19T16:13:13.018Z,7.10
2019-01-19T16:16:16.056Z,6.83
2019-01-19T16:19:23.299Z,5.90
2019-01-19T16:22:30.584Z,6.30
2019-01-19T16:25:38.352Z,6.10
2019-01-19T16:28:45.653Z,7.77
2019-01-19T16:31:53.229Z,6.70
2019-01-19T16:35:00.468Z,6.67
2019-01-19T16:37:52.501Z,7.93
2019-01-19T16:40:59.749Z,7.23
2019-01-19T16:44:07.322Z,8.17
2019-01-19T16:47:01.464Z,10.50
2019-01-19T16:49:57.545Z,9.27
2019-01-19T16:53:04.816Z,8.20
2019-01-19T16:56:12.067Z,9.73
2019-01-19T16:59:19.332Z,6.47
2019-01-19T17:02:26.607Z,7.77
2019-01-19T17:05:36.392Z,9.80
2019-01-19T17:08:37.605Z,10.60
2019-01-19T17:11:45.153Z,10.83
2019-01-19T17:14:52.416Z,9.63
2019-01-19T17:17:46.529Z,8.97
2019-01-19T17:20:51.383Z,8.07
2019-01-19T17:23:58.915Z,9.87
2019-01-19T17:27:06.193Z,8.20
2019-01-19T17:30:13.453Z,8.83
2019-01-19T17:33:12.662Z,5.70
2019-01-19T17:39:00.333Z,8.47
2019-01-19T17:44:56.132Z,6.73
2019-01-19T17:47:49.752Z,7.50
2019-01-19T17:56:43.547Z,8.67
2019-01-19T17:59:50.811Z,7.63
2019-01-19T18:02:58.098Z,11.83
2019-01-19T18:06:05.392Z,16.40
2019-01-19T18:14:31.938Z,12.87
2019-01-19T18:17:39.215Z,13.17
2019-01-19T18:20:47.053Z,11.03
2019-01-19T18:27:07.296Z,21.63
2019-01-19T18:39:18.281Z,19.87
2019-01-19T18:48:15.733Z,12.37
2019-01-19T18:51:22.988Z,13.67
2019-01-19T18:54:30.281Z,10.00
2019-01-19T19:00:37.472Z,9.67
2019-01-19T22:18:08.404Z,10.27
2019-01-19T22:23:29.486Z,11.83
2019-01-19T22:25:59.227Z,10.97
2019-01-19T22:28:49.165Z,10.40
2019-01-19T22:31:28.748Z,11.87
2019-01-19T22:34:17.299Z,12.47
2019-01-19T22:37:07.849Z,10.23
2019-01-19T22:39:42.107Z,10.30
2019-01-19T22:42:27.784Z,13.53
2019-01-19T22:47:56.561Z,9.87
2019-01-19T22:50:30.158Z,11.67
2019-01-19T22:53:00.959Z,13.10
2019-01-19T22:55:30.793Z,12.47
2019-01-19T22:58:13.922Z,10.03
2019-01-19T23:01:32.483Z,13.63
2019-01-19T23:04:21.306Z,12.63
2019-01-19T23:06:50.759Z,12.10
2019-01-19T23:09:20.254Z,12.10
2019-01-19T23:11:49.696Z,11.43
2019-01-19T23:14:19.215Z,13.50
2019-01-19T23:16:48.383Z,12.33
2019-01-19T23:19:18.187Z,12.47
2019-01-19T23:21:47.633Z,11.90
2019-01-19T23:24:17.249Z,11.13
